Time;durP1;ratioP1;P1;durP2;ratioP2;P2;SDS_P1;SDS_P2;PMS_P1;PMS_P2;Temp;Humidity;BMP_temperature;BMP_pressure;BME280_temperature;BME280_humidity;BME280_pressure;Samples;Min_cycle;Max_cycle;Signal;HPM_P1;HPM_P2
2021/12/16 00:06:13;;;;;;;28.38;16.45;;;7.40;99.90;;;;;;5015226;28;20049;-70
2021/12/16 00:08:37;;;;;;;28.30;16.63;;;7.40;99.90;;;;;;5014925;28;20057;-69
2021/12/16 00:30:11;;;;;;;27.40;17.20;;;7.50;99.90;;;;;;5034009;28;20049;-69
2021/12/16 00:35:15;;;;;;;30.65;17.55;;;7.50;99.90;;;;;;5031057;28;20053;-70
2021/12/16 00:37:41;;;;;;;31.17;17.25;;;7.40;99.90;;;;;;5032223;28;20068;-70
2021/12/16 00:40:11;;;;;;;28.00;18.25;;;7.50;99.90;;;;;;5034590;28;20410;-70
2021/12/16 00:42:47;;;;;;;29.77;17.70;;;7.40;99.90;;;;;;5026293;28;20064;-71
2021/12/16 00:48:00;;;;;;;37.30;18.25;;;7.40;99.90;;;;;;5030246;28;20061;-70
2021/12/16 00:55:52;;;;;;;30.85;18.50;;;7.50;99.90;;;;;;5034611;28;20053;-69
2021/12/16 00:58:22;;;;;;;32.03;18.38;;;7.40;99.90;;;;;;5033745;28;20140;-70
2021/12/16 01:00:57;;;;;;;30.00;19.88;;;7.40;99.90;;;;;;5033377;28;20548;-69
2021/12/16 01:03:34;;;;;;;32.70;19.48;;;7.40;99.90;;;;;;5052531;28;20515;-71
2021/12/16 01:33:44;;;;;;;33.90;19.00;;;7.50;99.90;;;;;;5037261;28;20144;-70
2021/12/16 01:37:00;;;;;;;34.47;19.73;;;7.50;99.90;;;;;;5036860;28;20056;-69
2021/12/16 01:49:51;;;;;;;31.92;18.98;;;7.50;99.90;;;;;;5037000;28;20049;-69
2021/12/16 01:57:28;;;;;;;37.30;20.38;;;7.50;99.90;;;;;;5035902;28;20055;-70
2021/12/16 02:00:03;;;;;;;35.65;18.67;;;7.50;99.90;;;;;;5037262;28;20060;-68
2021/12/16 02:02:38;;;;;;;34.03;19.45;;;7.50;99.90;;;;;;5036573;28;20049;-70
2021/12/16 02:05:36;;;;;;;37.72;19.48;;;7.50;99.90;;;;;;5037113;28;20057;-70
2021/12/16 02:08:23;;;;;;;31.38;19.63;;;7.50;99.90;;;;;;5036661;28;20544;-69
2021/12/16 02:11:11;;;;;;;37.50;19.92;;;7.50;99.90;;;;;;5033784;28;20053;-68
2021/12/16 02:27:25;;;;;;;33.65;19.60;;;7.40;99.90;;;;;;5036477;28;20179;-71
2021/12/16 02:30:34;;;;;;;33.10;19.58;;;7.20;99.90;;;;;;5036355;28;20053;-70
2021/12/16 02:35:32;;;;;;;34.17;21.33;;;7.10;99.90;;;;;;5036737;28;20041;-71
2021/12/16 02:38:00;;;;;;;38.70;20.08;;;7.10;99.90;;;;;;5018874;28;20041;-70
2021/12/16 02:40:26;;;;;;;41.05;21.23;;;7.10;99.90;;;;;;5035903;28;20394;-69
2021/12/16 02:43:19;;;;;;;39.35;20.58;;;7.10;99.90;;;;;;5036241;28;20045;-70
2021/12/16 02:48:34;;;;;;;32.72;19.70;;;7.00;99.90;;;;;;5036610;28;20396;-70
2021/12/16 02:51:13;;;;;;;36.22;21.15;;;7.00;99.90;;;;;;5035615;28;20049;-69
2021/12/16 02:53:42;;;;;;;37.90;21.40;;;7.00;99.90;;;;;;5035563;28;20049;-70
2021/12/16 02:56:08;;;;;;;41.78;21.40;;;7.00;99.90;;;;;;5035835;28;20049;-69
2021/12/16 02:58:38;;;;;;;41.92;21.48;;;7.00;99.90;;;;;;5035944;28;20234;-68
2021/12/16 03:01:13;;;;;;;36.33;21.08;;;7.00;99.90;;;;;;5035266;28;20060;-69
2021/12/16 03:03:39;;;;;;;35.45;21.75;;;7.00;99.90;;;;;;5035847;28;20060;-70
2021/12/16 03:06:06;;;;;;;48.83;24.80;;;7.00;99.90;;;;;;5035532;28;20045;-68
2021/12/16 03:08:34;;;;;;;40.20;21.98;;;7.00;99.90;;;;;;5035249;28;20056;-70
2021/12/16 03:11:16;;;;;;;40.13;22.20;;;7.10;99.90;;;;;;5035958;28;20088;-70
2021/12/16 03:14:00;;;;;;;;;;;7.10;99.90;;;;;;5036448;28;20037;-69
2021/12/16 03:16:42;;;;;;;38.25;19.83;;;7.00;99.90;;;;;;5035080;28;19921;-70
2021/12/16 03:19:25;;;;;;;39.22;21.95;;;7.00;99.90;;;;;;5035111;28;20056;-70
2021/12/16 03:21:55;;;;;;;43.33;21.45;;;7.00;99.90;;;;;;5052535;28;20052;-68
2021/12/16 03:35:00;;;;;;;37.35;20.98;;;7.10;99.90;;;;;;5033989;28;20049;-70
2021/12/16 03:37:28;;;;;;;40.85;21.83;;;7.10;99.90;;;;;;5025744;28;20053;-69
2021/12/16 03:39:59;;;;;;;40.63;22.50;;;7.00;99.90;;;;;;5035629;28;20388;-68
2021/12/16 03:42:50;;;;;;;37.35;21.13;;;7.00;99.90;;;;;;5035180;28;20098;-68
2021/12/16 03:48:15;;;;;;;36.78;22.40;;;7.10;99.90;;;;;;5034718;28;20045;-70
2021/12/16 03:50:41;;;;;;;39.15;22.83;;;7.10;99.90;;;;;;5034622;28;20119;-70
2021/12/16 03:53:08;;;;;;;41.47;21.25;;;7.10;99.90;;;;;;5052068;28;20139;-70
2021/12/16 03:55:34;;;;;;;47.90;22.67;;;7.10;99.90;;;;;;5052897;28;20115;-70
2021/12/16 03:58:00;;;;;;;40.78;22.85;;;7.10;99.90;;;;;;5034253;28;20041;-70
2021/12/16 04:00:31;;;;;;;40.30;21.90;;;7.10;99.90;;;;;;5035162;28;20103;-68
2021/12/16 04:02:57;;;;;;;40.65;21.45;;;7.10;99.90;;;;;;5034958;28;20146;-71
2021/12/16 04:05:25;;;;;;;40.17;21.75;;;7.10;99.90;;;;;;5035078;28;20444;-70
2021/12/16 04:07:51;;;;;;;43.42;21.60;;;7.10;99.90;;;;;;5040613;28;20152;-70
2021/12/16 04:10:35;;;;;;;36.63;21.13;;;7.10;99.90;;;;;;5031871;28;20081;-69
2021/12/16 04:13:04;;;;;;;37.45;21.58;;;7.00;99.90;;;;;;5034227;28;20126;-70
2021/12/16 04:15:31;;;;;;;46.00;23.95;;;7.00;99.90;;;;;;5035149;28;20049;-70
2021/12/16 04:17:57;;;;;;;45.35;22.67;;;7.00;99.90;;;;;;5052395;28;20061;-68
2021/12/16 04:20:24;;;;;;;44.92;22.83;;;7.00;99.90;;;;;;5052375;28;20056;-68
2021/12/16 04:22:51;;;;;;;42.90;22.63;;;6.90;99.90;;;;;;5033585;28;20081;-70
2021/12/16 04:25:23;;;;;;;49.50;24.35;;;6.90;99.90;;;;;;5033750;28;20059;-68
2021/12/16 04:27:54;;;;;;;43.78;23.38;;;6.90;99.90;;;;;;5034644;28;20053;-70
2021/12/16 04:30:20;;;;;;;46.17;23.45;;;6.90;99.90;;;;;;5035362;28;20075;-69
2021/12/16 04:32:47;;;;;;;49.42;23.90;;;7.00;99.90;;;;;;5033959;28;20053;-69
2021/12/16 04:35:14;;;;;;;46.00;23.48;;;7.00;99.90;;;;;;5019058;28;20076;-69
2021/12/16 04:37:40;;;;;;;41.85;22.58;;;7.00;99.90;;;;;;5050453;28;20061;-68
2021/12/16 04:40:09;;;;;;;54.97;25.20;;;7.00;99.90;;;;;;5052009;28;20069;-69
2021/12/16 04:42:36;;;;;;;48.80;23.88;;;7.10;99.90;;;;;;5034585;28;20488;-68
2021/12/16 04:45:05;;;;;;;44.92;23.80;;;7.10;99.90;;;;;;5034781;28;20389;-69
2021/12/16 04:47:31;;;;;;;46.50;23.58;;;7.00;99.90;;;;;;5036446;28;20064;-70
2021/12/16 04:49:56;;;;;;;43.28;22.33;;;7.00;99.90;;;;;;5022018;28;20049;-69
2021/12/16 04:52:22;;;;;;;41.90;23.27;;;7.10;99.90;;;;;;5021685;28;20204;-70
2021/12/16 04:54:48;;;;;;;42.63;23.33;;;7.10;99.90;;;;;;5018640;28;20061;-68
2021/12/16 04:57:15;;;;;;;47.17;22.08;;;7.00;99.90;;;;;;5002052;28;20382;-71
2021/12/16 04:59:40;;;;;;;34.40;20.63;;;7.00;99.90;;;;;;5018410;28;20485;-69
2021/12/16 05:02:14;;;;;;;39.85;22.27;;;7.00;99.90;;;;;;5017888;28;20054;-69
2021/12/16 05:04:41;;;;;;;38.42;21.90;;;6.90;99.90;;;;;;5002050;28;20052;-69
2021/12/16 05:07:07;;;;;;;43.33;21.45;;;6.90;99.90;;;;;;5019837;28;20092;-70
2021/12/16 05:12:02;;;;;;;41.50;20.70;;;6.70;99.90;;;;;;5034073;28;20079;-70
2021/12/16 05:14:28;;;;;;;42.00;22.83;;;6.70;99.90;;;;;;5036137;28;20040;-69
2021/12/16 05:16:54;;;;;;;42.40;22.35;;;6.60;99.90;;;;;;5017587;28;20056;-69
2021/12/16 05:19:21;;;;;;;43.78;22.48;;;6.60;99.90;;;;;;5034695;28;20124;-69
2021/12/16 05:21:57;;;;;;;39.63;21.30;;;6.60;99.90;;;;;;5036517;28;20107;-67
2021/12/16 05:24:25;;;;;;;38.40;20.95;;;6.60;99.90;;;;;;5037738;28;20053;-69
2021/12/16 05:26:57;;;;;;;42.60;21.77;;;6.50;99.90;;;;;;5055176;28;20048;-68
2021/12/16 05:29:24;;;;;;;41.40;19.65;;;6.50;99.90;;;;;;5037837;28;20049;-69
2021/12/16 05:31:51;;;;;;;44.20;23.38;;;6.40;99.90;;;;;;5036569;28;20048;-69
2021/12/16 05:34:17;;;;;;;45.35;22.55;;;6.40;99.90;;;;;;5020950;28;20044;-70
2021/12/16 05:36:44;;;;;;;42.03;22.05;;;6.30;99.90;;;;;;5036868;28;20135;-69
2021/12/16 05:39:10;;;;;;;37.47;20.77;;;6.30;99.90;;;;;;5037172;28;20064;-69
2021/12/16 05:41:36;;;;;;;40.95;22.30;;;6.30;99.90;;;;;;5055377;28;20127;-69
2021/12/16 05:44:02;;;;;;;42.88;22.92;;;6.30;99.90;;;;;;5020700;28;20172;-70
2021/12/16 05:46:29;;;;;;;53.63;24.90;;;6.40;99.90;;;;;;5035070;28;20057;-69
2021/12/16 05:48:57;;;;;;;55.70;24.48;;;6.50;99.90;;;;;;5017277;28;20089;-68
2021/12/16 05:51:33;;;;;;;54.67;23.60;;;6.50;99.90;;;;;;5017297;28;20068;-70
2021/12/16 05:54:02;;;;;;;52.70;23.23;;;6.60;99.90;;;;;;5032064;28;20125;-67
2021/12/16 05:56:27;;;;;;;54.28;24.92;;;6.60;99.90;;;;;;5036224;28;20113;-69
2021/12/16 05:58:53;;;;;;;42.95;23.40;;;6.70;99.90;;;;;;5054045;28;20057;-70
2021/12/16 06:01:26;;;;;;;43.28;20.73;;;6.70;99.90;;;;;;5036522;28;20041;-69
2021/12/16 06:03:53;;;;;;;44.85;23.38;;;6.70;99.90;;;;;;5036669;28;20060;-69
2021/12/16 06:06:20;;;;;;;41.10;21.55;;;6.70;99.90;;;;;;5036901;28;20119;-70
2021/12/16 06:08:47;;;;;;;37.05;19.85;;;6.70;99.90;;;;;;5055265;28;20057;-69
2021/12/16 06:11:18;;;;;;;44.67;22.10;;;6.80;99.90;;;;;;5036241;28;20049;-69
2021/12/16 06:14:01;;;;;;;47.28;23.08;;;6.80;99.90;;;;;;5036999;28;20056;-69
2021/12/16 06:27:31;;;;;;;56.15;27.98;;;6.90;99.90;;;;;;5034484;28;20061;-69
2021/12/16 06:29:58;;;;;;;50.35;27.75;;;6.90;99.90;;;;;;5016582;28;20473;-69
2021/12/16 06:32:25;;;;;;;38.75;23.38;;;6.90;99.90;;;;;;5016237;28;20086;-70
2021/12/16 06:34:53;;;;;;;47.38;24.77;;;6.90;99.90;;;;;;5022436;28;20477;-69
2021/12/16 06:37:19;;;;;;;39.63;22.13;;;6.90;99.90;;;;;;5017649;28;20060;-69
2021/12/16 06:39:45;;;;;;;37.45;20.33;;;6.90;99.90;;;;;;5024325;28;20059;-68
2021/12/16 06:42:11;;;;;;;33.33;19.63;;;6.90;99.90;;;;;;5036804;28;20459;-69
2021/12/16 06:44:43;;;;;;;37.85;20.08;;;7.00;99.90;;;;;;5041381;28;20164;-69
2021/12/16 06:47:15;;;;;;;39.72;20.13;;;7.00;99.90;;;;;;5035240;28;20037;-69
2021/12/16 06:49:44;;;;;;;36.25;20.27;;;7.00;99.90;;;;;;5018873;28;20041;-68
2021/12/16 06:52:13;;;;;;;37.83;19.92;;;7.00;99.90;;;;;;5031938;28;20037;-68
2021/12/16 07:00:07;;;;;;;44.13;23.00;;;7.00;99.90;;;;;;5017040;28;20127;-68
2021/12/16 07:05:20;;;;;;;38.40;23.67;;;7.00;99.90;;;;;;5034822;28;20049;-68
2021/12/16 07:07:47;;;;;;;39.20;22.80;;;7.00;99.90;;;;;;5017470;28;20041;-69
2021/12/16 07:10:14;;;;;;;46.75;24.55;;;7.10;99.90;;;;;;5035294;28;20057;-68
2021/12/16 07:12:47;;;;;;;40.08;22.60;;;7.10;99.90;;;;;;5029308;28;20445;-68
2021/12/16 07:15:15;;;;;;;42.70;22.40;;;7.10;99.90;;;;;;5035471;28;20450;-69
2021/12/16 07:17:42;;;;;;;48.97;24.23;;;7.10;99.90;;;;;;5052189;28;20061;-70
2021/12/16 07:20:11;;;;;;;40.10;20.92;;;7.00;99.90;;;;;;5035137;28;20044;-71
2021/12/16 07:22:37;;;;;;;46.75;23.00;;;7.00;99.90;;;;;;5052942;28;20107;-71
2021/12/16 07:25:04;;;;;;;50.40;25.88;;;7.10;99.90;;;;;;5034260;28;20052;-68
2021/12/16 07:27:32;;;;;;;41.78;26.60;;;7.00;99.90;;;;;;5037044;28;20056;-67
2021/12/16 07:29:58;;;;;;;55.28;28.83;;;7.00;99.90;;;;;;5035215;28;20474;-70
2021/12/16 07:32:23;;;;;;;54.40;25.65;;;7.00;99.90;;;;;;5052354;28;20062;-70
2021/12/16 07:34:49;;;;;;;48.78;24.65;;;7.00;99.90;;;;;;5031687;28;20064;-69
2021/12/16 07:37:15;;;;;;;50.50;25.13;;;7.00;99.90;;;;;;5034820;28;20060;-70
2021/12/16 07:39:44;;;;;;;47.75;23.00;;;6.90;99.90;;;;;;5052752;28;20045;-70
2021/12/16 07:42:12;;;;;;;39.85;22.40;;;6.90;99.90;;;;;;5034233;28;20124;-69
2021/12/16 07:44:38;;;;;;;47.67;25.70;;;6.90;99.90;;;;;;5052182;28;20053;-70
2021/12/16 07:47:09;;;;;;;46.70;24.48;;;6.80;99.90;;;;;;5034643;28;20111;-70
2021/12/16 07:49:40;;;;;;;46.92;23.88;;;6.70;99.90;;;;;;5052411;28;20045;-70
2021/12/16 07:52:09;;;;;;;53.60;23.75;;;6.70;99.90;;;;;;5034511;28;20056;-69
2021/12/16 07:54:35;;;;;;;50.80;24.08;;;6.70;99.90;;;;;;5052215;28;20051;-69
2021/12/16 07:57:01;;;;;;;47.67;23.98;;;6.60;99.90;;;;;;5034577;28;20120;-71
2021/12/16 07:59:29;;;;;;;45.10;24.88;;;6.60;99.90;;;;;;5034220;28;20051;-69
2021/12/16 08:01:56;;;;;;;56.35;25.30;;;6.70;99.90;;;;;;5034399;28;20481;-69
2021/12/16 08:04:28;;;;;;;50.35;25.13;;;6.60;99.90;;;;;;5035445;28;20319;-70
2021/12/16 08:06:58;;;;;;;57.13;23.80;;;6.60;99.90;;;;;;5052791;28;20048;-70
2021/12/16 08:09:24;;;;;;;65.97;26.48;;;6.60;99.90;;;;;;5034887;28;20041;-69
2021/12/16 08:11:51;;;;;;;65.13;26.40;;;6.60;99.90;;;;;;5034414;28;20045;-71
2021/12/16 08:14:18;;;;;;;67.03;27.40;;;6.60;99.90;;;;;;5034899;28;20124;-69
2021/12/16 08:16:44;;;;;;;75.47;28.17;;;6.70;99.90;;;;;;5034194;28;20084;-68
2021/12/16 08:19:11;;;;;;;88.93;31.55;;;6.70;99.90;;;;;;5035040;28;20052;-69
2021/12/16 08:21:38;;;;;;;109.85;32.90;;;6.80;99.90;;;;;;5053902;28;20084;-68
2021/12/16 08:24:08;;;;;;;120.72;33.15;;;6.90;99.90;;;;;;5039297;28;20507;-69
2021/12/16 08:26:36;;;;;;;136.27;34.17;;;6.90;99.90;;;;;;5022024;28;20510;-70
2021/12/16 08:29:01;;;;;;;96.75;29.75;;;7.00;99.90;;;;;;5038353;28;20076;-69
2021/12/16 08:31:28;;;;;;;146.23;34.08;;;7.00;99.90;;;;;;5038566;28;20134;-70
2021/12/16 08:33:54;;;;;;;130.18;30.35;;;7.00;99.90;;;;;;5038777;28;20369;-69
2021/12/16 08:36:19;;;;;;;117.72;32.35;;;7.10;99.90;;;;;;5038876;28;20052;-69
2021/12/16 08:38:46;;;;;;;184.38;38.17;;;7.10;99.90;;;;;;5038146;28;20056;-68
2021/12/16 08:41:20;;;;;;;157.65;35.10;;;7.10;99.90;;;;;;5038390;28;20057;-69
2021/12/16 08:43:46;;;;;;;169.85;35.65;;;7.20;99.90;;;;;;5021683;28;20534;-69
2021/12/16 08:46:14;;;;;;;181.85;34.70;;;7.20;99.90;;;;;;5055995;28;20481;-69
2021/12/16 08:48:41;;;;;;;119.75;31.95;;;7.30;99.90;;;;;;5038513;28;20063;-68
2021/12/16 08:51:07;;;;;;;145.07;35.47;;;7.30;99.90;;;;;;5055668;28;20341;-69
2021/12/16 08:53:35;;;;;;;117.38;32.22;;;7.30;99.90;;;;;;5038222;28;20045;-69
2021/12/16 08:56:01;;;;;;;149.63;34.55;;;7.40;99.90;;;;;;5038340;28;20607;-68
2021/12/16 08:58:27;;;;;;;100.40;29.10;;;7.40;99.90;;;;;;5025982;28;20132;-70
2021/12/16 09:00:57;;;;;;;121.30;34.97;;;7.40;99.90;;;;;;5037629;28;20136;-67
2021/12/16 09:03:23;;;;;;;109.25;30.52;;;7.50;99.90;;;;;;5038593;28;20085;-69
2021/12/16 09:05:49;;;;;;;113.13;30.73;;;7.40;99.90;;;;;;5037477;28;20820;-67
2021/12/16 09:08:15;;;;;;;57.10;23.85;;;7.60;99.90;;;;;;5033789;28;20053;-69
2021/12/16 09:10:41;;;;;;;90.70;28.92;;;7.60;99.90;;;;;;5034854;28;20396;-69
2021/12/16 09:13:14;;;;;;;71.80;26.52;;;7.60;99.90;;;;;;5017932;28;20052;-70
2021/12/16 09:15:42;;;;;;;60.50;27.45;;;7.70;99.90;;;;;;5028415;28;20060;-68
2021/12/16 09:18:08;;;;;;;99.47;38.03;;;7.70;99.90;;;;;;5041156;28;20123;-69
2021/12/16 09:20:34;;;;;;;59.13;24.77;;;7.70;99.90;;;;;;5032960;28;20365;-69
2021/12/16 09:23:00;;;;;;;78.38;26.02;;;7.70;99.90;;;;;;5037513;28;20056;-68
2021/12/16 09:25:26;;;;;;;67.82;25.58;;;7.70;99.90;;;;;;5037838;28;20057;-70
2021/12/16 09:27:52;;;;;;;73.97;28.88;;;7.70;99.90;;;;;;5037461;28;20409;-68
2021/12/16 09:30:22;;;;;;;62.13;25.23;;;7.70;99.90;;;;;;5038075;28;20512;-70
2021/12/16 09:32:51;;;;;;;49.88;24.15;;;7.70;99.90;;;;;;5036073;28;20399;-69
2021/12/16 09:35:18;;;;;;;48.85;22.55;;;7.60;99.90;;;;;;5036491;28;20102;-69
2021/12/16 09:37:44;;;;;;;51.65;22.58;;;7.60;99.90;;;;;;5037061;28;20049;-71
2021/12/16 09:40:15;;;;;;;45.05;20.35;;;7.70;99.90;;;;;;5041379;28;20111;-69
2021/12/16 09:42:41;;;;;;;49.67;22.30;;;7.60;99.90;;;;;;5017908;28;20053;-69
2021/12/16 09:45:09;;;;;;;39.35;20.38;;;7.60;99.90;;;;;;5035172;28;20053;-68
2021/12/16 09:47:37;;;;;;;44.45;21.55;;;7.70;99.90;;;;;;5028941;28;20057;-68
2021/12/16 09:50:05;;;;;;;41.45;20.20;;;7.70;99.90;;;;;;5037119;28;20045;-67
2021/12/16 09:52:31;;;;;;;41.35;20.92;;;7.70;99.90;;;;;;5036790;28;20086;-67
2021/12/16 09:54:57;;;;;;;43.35;21.85;;;7.70;99.90;;;;;;5019476;28;20132;-67
2021/12/16 09:57:22;;;;;;;45.33;20.85;;;7.80;99.90;;;;;;5053102;28;20714;-68
2021/12/16 09:59:48;;;;;;;41.28;22.90;;;7.80;99.90;;;;;;5033628;28;20037;-69
2021/12/16 10:02:18;;;;;;;38.40;21.48;;;7.80;99.90;;;;;;5030113;28;20045;-69
2021/12/16 10:04:45;;;;;;;52.08;31.05;;;7.80;99.90;;;;;;5036706;28;20064;-68
2021/12/16 10:07:14;;;;;;;39.30;20.35;;;7.90;99.90;;;;;;5054086;28;20064;-68
2021/12/16 10:09:42;;;;;;;39.90;19.45;;;7.90;99.90;;;;;;5036936;28;20508;-67
2021/12/16 10:12:13;;;;;;;31.65;17.90;;;7.90;99.90;;;;;;5036932;28;20374;-68
2021/12/16 10:14:59;;;;;;;32.55;17.98;;;7.90;99.90;;;;;;5036808;28;20475;-68
2021/12/16 10:17:40;;;;;;;37.97;18.13;;;7.90;99.90;;;;;;5035875;28;20045;-69
2021/12/16 10:20:26;;;;;;;30.50;17.60;;;8.00;99.90;;;;;;5036295;28;20432;-70
2021/12/16 10:23:01;;;;;;;34.20;18.10;;;8.00;99.90;;;;;;5054583;28;20162;-68
2021/12/16 10:25:32;;;;;;;31.45;18.15;;;8.00;99.90;;;;;;5036409;28;20056;-67
2021/12/16 10:28:25;;;;;;;29.85;16.50;;;8.00;99.90;;;;;;5037029;28;20455;-68
2021/12/16 10:31:03;;;;;;;26.55;16.73;;;8.00;99.90;;;;;;5033405;28;20068;-68
2021/12/16 10:33:32;;;;;;;32.20;16.75;;;8.10;99.90;;;;;;5036297;28;20053;-68
2021/12/16 10:36:12;;;;;;;33.88;16.75;;;8.10;99.90;;;;;;5036098;28;20057;-68
2021/12/16 10:38:45;;;;;;;27.60;16.60;;;8.20;99.90;;;;;;5033115;28;20508;-69
2021/12/16 10:41:16;;;;;;;27.88;16.23;;;8.20;99.90;;;;;;5035604;28;20045;-68
2021/12/16 10:43:50;;;;;;;33.55;15.38;;;8.20;99.90;;;;;;5036132;28;20073;-68
2021/12/16 10:46:23;;;;;;;28.85;15.20;;;8.20;99.90;;;;;;5035741;28;20128;-70
2021/12/16 10:48:53;;;;;;;31.98;16.52;;;8.30;99.90;;;;;;5036079;28;20056;-68
2021/12/16 10:51:23;;;;;;;39.35;16.50;;;8.30;99.90;;;;;;5036161;28;20055;-71
2021/12/16 10:54:07;;;;;;;34.38;15.82;;;8.30;99.90;;;;;;5034280;28;20060;-69
2021/12/16 10:56:41;;;;;;;36.83;17.38;;;8.30;99.90;;;;;;5034033;28;20095;-68
2021/12/16 10:59:15;;;;;;;34.65;18.00;;;8.30;99.90;;;;;;5049168;28;20515;-69
2021/12/16 11:01:53;;;;;;;31.35;17.65;;;8.40;99.90;;;;;;5035362;28;20053;-68
2021/12/16 11:04:35;;;;;;;35.50;17.35;;;8.40;99.90;;;;;;5033840;28;20059;-68
2021/12/16 11:07:09;;;;;;;36.13;16.80;;;8.40;99.90;;;;;;5050790;28;20056;-68
2021/12/16 11:09:56;;;;;;;34.92;16.05;;;8.40;99.90;;;;;;5048610;28;20481;-71
2021/12/16 11:12:38;;;;;;;33.50;16.45;;;8.40;99.90;;;;;;5051354;28;20057;-69
2021/12/16 11:15:33;;;;;;;33.22;15.95;;;8.40;99.90;;;;;;5033906;28;20080;-70
2021/12/16 11:18:17;;;;;;;36.40;15.95;;;8.40;99.90;;;;;;5033709;28;20100;-69
2021/12/16 11:20:49;;;;;;;35.08;16.65;;;8.40;99.90;;;;;;5035727;28;20049;-69
2021/12/16 11:23:22;;;;;;;38.42;16.95;;;8.50;99.90;;;;;;5019427;28;20055;-69
2021/12/16 11:26:14;;;;;;;41.85;16.95;;;8.50;99.90;;;;;;5052199;28;20114;-69
2021/12/16 11:28:49;;;;;;;38.10;16.53;;;8.50;99.90;;;;;;5040538;28;20091;-68
2021/12/16 11:31:20;;;;;;;40.20;17.90;;;8.40;99.90;;;;;;5033929;28;20783;-68
2021/12/16 11:33:58;;;;;;;46.95;18.60;;;8.40;99.90;;;;;;5035616;28;20068;-69
2021/12/16 11:36:31;;;;;;;41.20;17.15;;;8.40;99.90;;;;;;5035742;28;20079;-69
2021/12/16 11:39:06;;;;;;;45.53;17.83;;;8.50;99.90;;;;;;5034257;28;20060;-69
2021/12/16 11:41:36;;;;;;;39.75;18.10;;;8.50;99.90;;;;;;5034938;28;20092;-68
2021/12/16 11:44:16;;;;;;;58.35;17.98;;;8.40;99.90;;;;;;5035116;28;20058;-69
2021/12/16 11:46:50;;;;;;;41.35;19.10;;;8.40;99.90;;;;;;5034609;28;20094;-69
2021/12/16 11:49:15;;;;;;;37.67;17.58;;;8.40;99.90;;;;;;5034051;28;20061;-68
2021/12/16 11:51:48;;;;;;;60.17;19.92;;;8.40;99.90;;;;;;5052823;28;20128;-69
2021/12/16 11:57:35;;;;;;;49.38;18.92;;;8.50;99.90;;;;;;5014263;28;20055;-68
2021/12/16 12:00:07;;;;;;;62.72;18.58;;;8.50;99.90;;;;;;5015152;28;20049;-69
2021/12/16 12:02:37;;;;;;;60.67;18.85;;;8.50;99.90;;;;;;5014491;28;20481;-69
2021/12/16 12:05:25;;;;;;;43.30;18.92;;;8.50;99.90;;;;;;5035013;28;20061;-69
2021/12/16 12:07:56;;;;;;;41.95;17.55;;;8.50;99.90;;;;;;5034984;28;20053;-68
2021/12/16 12:10:46;;;;;;;36.42;14.60;;;8.50;99.90;;;;;;5051569;28;20060;-68
2021/12/16 12:13:16;;;;;;;57.75;18.05;;;8.60;99.90;;;;;;5033065;28;20057;-69
2021/12/16 12:16:24;;;;;;;65.05;17.60;;;8.60;99.90;;;;;;5031335;28;20111;-69
2021/12/16 12:18:51;;;;;;;45.95;17.83;;;8.60;99.90;;;;;;5034191;28;20056;-68
2021/12/16 12:21:37;;;;;;;50.25;17.58;;;8.60;99.90;;;;;;5034876;28;20128;-69
2021/12/16 12:24:09;;;;;;;51.67;17.13;;;8.70;99.90;;;;;;5039955;28;20053;-69
2021/12/16 12:26:57;;;;;;;49.15;17.27;;;8.70;99.90;;;;;;5033413;28;20064;-71
2021/12/16 12:29:53;;;;;;;45.00;15.77;;;8.60;99.90;;;;;;5030291;28;20053;-68
2021/12/16 12:32:38;;;;;;;35.97;14.00;;;8.60;99.90;;;;;;5012671;28;20089;-68
2021/12/16 12:35:27;;;;;;;57.60;17.30;;;8.70;99.90;;;;;;5014834;28;20053;-67
2021/12/16 12:37:59;;;;;;;73.65;17.58;;;8.70;99.90;;;;;;5014628;28;20096;-70
2021/12/16 12:40:47;;;;;;;59.50;18.00;;;8.60;99.90;;;;;;5020794;28;20060;-69
2021/12/16 12:43:14;;;;;;;61.25;18.02;;;8.60;99.90;;;;;;5052372;28;20128;-69
2021/12/16 12:45:41;;;;;;;50.70;16.52;;;8.60;99.90;;;;;;5033847;28;20048;-69
2021/12/16 12:48:15;;;;;;;47.20;17.63;;;8.70;99.90;;;;;;5052148;28;20489;-69
2021/12/16 12:50:46;;;;;;;52.55;16.63;;;8.70;99.90;;;;;;5052340;28;20135;-68
2021/12/16 12:53:20;;;;;;;68.03;17.30;;;8.70;99.90;;;;;;5052305;28;20557;-68
2021/12/16 12:55:49;;;;;;;45.85;15.88;;;8.70;99.90;;;;;;5039665;28;20080;-70
2021/12/16 12:58:27;;;;;;;52.03;17.55;;;8.70;99.90;;;;;;5017451;28;20063;-68
2021/12/16 13:00:59;;;;;;;41.78;15.45;;;8.70;99.90;;;;;;5014741;28;20081;-69
2021/12/16 13:03:34;;;;;;;57.90;16.88;;;8.70;99.90;;;;;;4998338;28;20053;-71
2021/12/16 13:06:08;;;;;;;44.15;16.23;;;8.70;99.90;;;;;;5032385;28;20136;-70
2021/12/16 13:08:45;;;;;;;48.65;16.40;;;8.70;99.90;;;;;;5017576;28;20124;-71
2021/12/16 13:11:27;;;;;;;60.95;17.58;;;8.70;99.90;;;;;;5018142;28;20427;-68
2021/12/16 13:14:30;;;;;;;49.83;16.02;;;8.70;99.90;;;;;;5036550;28;20129;-70
2021/12/16 13:17:32;;;;;;;49.92;16.15;;;8.70;99.90;;;;;;5054797;28;20060;-69
2021/12/16 13:31:33;;;;;;;62.65;15.82;;;8.70;99.90;;;;;;5037258;28;20350;-71
2021/12/16 13:34:01;;;;;;;49.33;15.15;;;8.60;99.90;;;;;;5037438;28;20053;-70
2021/12/16 13:36:47;;;;;;;71.93;17.17;;;8.70;99.90;;;;;;5037153;28;20091;-68
2021/12/16 13:39:21;;;;;;;56.90;16.25;;;8.70;99.90;;;;;;5000926;28;20053;-69
2021/12/16 13:42:06;;;;;;;56.20;16.60;;;8.80;99.90;;;;;;5017473;28;20064;-68
2021/12/16 13:44:53;;;;;;;56.78;17.40;;;8.80;99.90;;;;;;5017252;28;20060;-68
2021/12/16 14:06:39;;;;;;;45.30;16.27;;;8.70;99.90;;;;;;4989355;28;20050;-71
2021/12/16 14:09:16;;;;;;;47.35;17.35;;;8.70;99.90;;;;;;4997994;28;20061;-69
2021/12/16 14:12:55;;;;;;;58.67;17.88;;;8.70;99.90;;;;;;4997258;28;20121;-70
2021/12/16 14:15:10;;;;;;;44.85;18.15;;;8.70;99.90;;;;;;4997058;28;20054;-68
2021/12/16 14:17:57;;;;;;;60.25;19.55;;;8.70;99.90;;;;;;4998958;28;20137;-69
2021/12/16 14:23:27;;;;;;;46.47;18.80;;;8.70;99.90;;;;;;5016762;28;20505;-69
2021/12/16 14:26:19;;;;;;;45.70;18.88;;;8.60;99.90;;;;;;5017007;28;20056;-68
2021/12/16 14:50:21;;;;;;;34.85;14.63;;;8.30;99.90;;;;;;5035850;28;20056;-68
2021/12/16 14:52:47;;;;;;;55.40;16.83;;;8.30;99.90;;;;;;5046079;28;20057;-69
2021/12/16 14:55:14;;;;;;;61.33;15.52;;;8.30;99.90;;;;;;5019716;28;20045;-69
2021/12/16 14:57:44;;;;;;;87.30;17.30;;;8.20;99.90;;;;;;5035422;28;20455;-68
2021/12/16 15:00:29;;;;;;;72.00;17.90;;;8.20;99.90;;;;;;5019636;28;20045;-69
2021/12/16 15:03:09;;;;;;;68.10;17.60;;;8.20;99.90;;;;;;5035120;28;20041;-69
2021/12/16 15:05:42;;;;;;;77.50;17.55;;;8.20;99.90;;;;;;5035619;28;20543;-68
2021/12/16 15:08:43;;;;;;;80.45;19.02;;;8.20;99.90;;;;;;5035336;28;20469;-67
2021/12/16 15:11:12;;;;;;;38.47;15.20;;;8.10;99.90;;;;;;5034630;28;20386;-69
2021/12/16 15:13:48;;;;;;;56.72;15.68;;;8.10;99.90;;;;;;5035803;28;20049;-69
2021/12/16 15:16:35;;;;;;;68.88;17.23;;;8.10;99.90;;;;;;5051857;28;20061;-69
2021/12/16 15:36:43;;;;;;;68.38;17.42;;;7.90;99.90;;;;;;5035445;28;20049;-69
2021/12/16 15:39:45;;;;;;;;;;;7.90;99.90;;;;;;5015963;28;20089;-69
2021/12/16 15:45:31;;;;;;;61.40;16.73;;;7.90;99.90;;;;;;5033055;28;20097;-70
2021/12/16 15:48:10;;;;;;;64.13;16.05;;;8.00;99.90;;;;;;5020466;28;20103;-69
2021/12/16 15:50:47;;;;;;;61.13;15.77;;;7.90;99.90;;;;;;5015022;28;20092;-69
2021/12/16 15:53:34;;;;;;;33.55;13.20;;;7.90;99.90;;;;;;5031516;28;20642;-70
2021/12/16 15:56:16;;;;;;;64.75;16.98;;;7.90;99.90;;;;;;5015244;28;20060;-69
2021/12/16 15:58:45;;;;;;;59.22;15.95;;;7.90;99.90;;;;;;5015227;28;20053;-68
2021/12/16 16:01:15;;;;;;;75.55;17.13;;;7.90;99.90;;;;;;5013152;28;20401;-70
2021/12/16 16:03:45;;;;;;;36.78;13.25;;;7.90;99.90;;;;;;5015364;28;20049;-68
2021/12/16 16:06:13;;;;;;;55.33;15.85;;;7.90;99.90;;;;;;5015409;28;20099;-70
2021/12/16 16:08:46;;;;;;;66.35;18.92;;;7.90;99.90;;;;;;5029614;28;20081;-71
2021/12/16 16:11:13;;;;;;;;;;;7.90;99.90;;;;;;5006564;28;20091;-68
2021/12/16 16:13:43;;;;;;;70.82;17.90;;;7.90;99.90;;;;;;5013870;28;20063;-69
2021/12/16 16:16:14;;;;;;;72.20;19.08;;;7.90;99.90;;;;;;5014472;28;20045;-69
2021/12/16 16:18:43;;;;;;;52.97;16.75;;;7.90;99.90;;;;;;4998615;28;20053;-70
2021/12/16 16:21:24;;;;;;;63.17;16.50;;;7.90;99.90;;;;;;5015308;28;20470;-71
2021/12/16 16:23:54;;;;;;;43.10;14.85;;;7.90;99.90;;;;;;5014168;28;20053;-69
2021/12/16 16:26:21;;;;;;;59.88;16.27;;;7.90;99.90;;;;;;5029068;28;20136;-69
2021/12/16 16:28:52;;;;;;;59.10;15.48;;;7.90;99.90;;;;;;5014694;28;20143;-68
2021/12/16 16:31:23;;;;;;;53.70;15.43;;;7.90;99.90;;;;;;5032169;28;20053;-69
2021/12/16 16:33:50;;;;;;;45.17;15.55;;;7.20;99.90;;;;;;5014955;28;20057;-67
2021/12/16 16:36:19;;;;;;;50.38;14.65;;;7.90;99.90;;;;;;5032954;28;20166;-68